sensor_id;sensor_type;location;lat;lon;timestamp;P1;durP1;ratioP1;P2;durP2;ratioP2
28170;SDS011;15458;53.346;-1.688;2023-05-29T00:00:13;11.85;;;2.80;;
28170;SDS011;15458;53.346;-1.688;2023-05-29T00:02:42;16.90;;;3.33;;
28170;SDS011;15458;53.346;-1.688;2023-05-29T00:05:12;15.57;;;3.33;;
28170;SDS011;15458;53.346;-1.688;2023-05-29T00:07:38;22.38;;;4.00;;
28170;SDS011;15458;53.346;-1.688;2023-05-29T00:10:05;20.73;;;3.80;;
28170;SDS011;15458;53.346;-1.688;2023-05-29T00:12:31;19.50;;;3.75;;
28170;SDS011;15458;53.346;-1.688;2023-05-29T00:14:57;21.33;;;3.47;;
28170;SDS011;15458;53.346;-1.688;2023-05-29T00:17:23;19.08;;;4.78;;
28170;SDS011;15458;53.346;-1.688;2023-05-29T00:19:49;21.58;;;4.00;;
28170;SDS011;15458;53.346;-1.688;2023-05-29T00:22:15;22.67;;;4.47;;
28170;SDS011;15458;53.346;-1.688;2023-05-29T00:24:43;34.97;;;4.43;;
28170;SDS011;15458;53.346;-1.688;2023-05-29T00:27:09;19.70;;;4.25;;
28170;SDS011;15458;53.346;-1.688;2023-05-29T00:29:36;17.67;;;4.05;;
28170;SDS011;15458;53.346;-1.688;2023-05-29T00:32:02;18.70;;;4.10;;
28170;SDS011;15458;53.346;-1.688;2023-05-29T00:34:30;24.88;;;5.00;;
28170;SDS011;15458;53.346;-1.688;2023-05-29T00:36:55;19.98;;;4.60;;
28170;SDS011;15458;53.346;-1.688;2023-05-29T00:39:22;20.08;;;4.43;;
28170;SDS011;15458;53.346;-1.688;2023-05-29T00:41:48;23.40;;;5.20;;
28170;SDS011;15458;53.346;-1.688;2023-05-29T00:44:16;22.55;;;5.20;;
28170;SDS011;15458;53.346;-1.688;2023-05-29T00:46:43;26.02;;;5.25;;
28170;SDS011;15458;53.346;-1.688;2023-05-29T00:49:08;21.38;;;4.97;;
28170;SDS011;15458;53.346;-1.688;2023-05-29T00:51:36;21.38;;;4.78;;
28170;SDS011;15458;53.346;-1.688;2023-05-29T00:54:06;20.05;;;4.80;;
28170;SDS011;15458;53.346;-1.688;2023-05-29T00:56:34;20.98;;;4.68;;
28170;SDS011;15458;53.346;-1.688;2023-05-29T00:59:00;21.88;;;4.90;;
28170;SDS011;15458;53.346;-1.688;2023-05-29T01:01:26;17.75;;;4.82;;
28170;SDS011;15458;53.346;-1.688;2023-05-29T01:03:54;19.08;;;4.47;;
28170;SDS011;15458;53.346;-1.688;2023-05-29T01:06:22;18.20;;;4.25;;
28170;SDS011;15458;53.346;-1.688;2023-05-29T01:08:51;25.20;;;4.82;;
28170;SDS011;15458;53.346;-1.688;2023-05-29T01:11:52;23.15;;;4.50;;
28170;SDS011;15458;53.346;-1.688;2023-05-29T01:14:09;24.63;;;4.75;;
28170;SDS011;15458;53.346;-1.688;2023-05-29T01:16:48;16.35;;;4.00;;
28170;SDS011;15458;53.346;-1.688;2023-05-29T01:22:13;24.30;;;4.68;;
28170;SDS011;15458;53.346;-1.688;2023-05-29T01:24:50;24.30;;;4.28;;
28170;SDS011;15458;53.346;-1.688;2023-05-29T01:27:22;16.63;;;4.03;;
28170;SDS011;15458;53.346;-1.688;2023-05-29T01:29:51;16.13;;;4.55;;
28170;SDS011;15458;53.346;-1.688;2023-05-29T01:32:18;15.25;;;3.53;;
28170;SDS011;15458;53.346;-1.688;2023-05-29T01:34:45;14.93;;;3.40;;
28170;SDS011;15458;53.346;-1.688;2023-05-29T01:37:12;13.35;;;4.43;;
28170;SDS011;15458;53.346;-1.688;2023-05-29T01:39:38;17.38;;;4.47;;
28170;SDS011;15458;53.346;-1.688;2023-05-29T01:42:05;18.45;;;4.65;;
28170;SDS011;15458;53.346;-1.688;2023-05-29T01:44:31;19.95;;;3.97;;
28170;SDS011;15458;53.346;-1.688;2023-05-29T01:46:58;12.07;;;4.07;;
28170;SDS011;15458;53.346;-1.688;2023-05-29T01:49:24;13.45;;;3.80;;
28170;SDS011;15458;53.346;-1.688;2023-05-29T01:51:50;20.95;;;3.75;;
28170;SDS011;15458;53.346;-1.688;2023-05-29T01:54:16;13.07;;;3.58;;
28170;SDS011;15458;53.346;-1.688;2023-05-29T01:56:42;12.18;;;3.40;;
28170;SDS011;15458;53.346;-1.688;2023-05-29T01:59:09;14.85;;;3.72;;
28170;SDS011;15458;53.346;-1.688;2023-05-29T02:01:38;21.23;;;4.18;;
28170;SDS011;15458;53.346;-1.688;2023-05-29T02:04:05;18.35;;;4.60;;
28170;SDS011;15458;53.346;-1.688;2023-05-29T02:06:30;12.50;;;4.03;;
28170;SDS011;15458;53.346;-1.688;2023-05-29T02:08:58;15.27;;;4.40;;
28170;SDS011;15458;53.346;-1.688;2023-05-29T02:11:24;17.33;;;4.07;;
28170;SDS011;15458;53.346;-1.688;2023-05-29T02:13:51;14.85;;;3.45;;
28170;SDS011;15458;53.346;-1.688;2023-05-29T02:16:17;14.70;;;3.60;;
28170;SDS011;15458;53.346;-1.688;2023-05-29T02:18:45;13.45;;;3.45;;
28170;SDS011;15458;53.346;-1.688;2023-05-29T02:21:11;15.95;;;4.05;;
28170;SDS011;15458;53.346;-1.688;2023-05-29T02:23:37;13.43;;;4.68;;
28170;SDS011;15458;53.346;-1.688;2023-05-29T02:26:04;14.32;;;5.68;;
28170;SDS011;15458;53.346;-1.688;2023-05-29T02:28:30;19.48;;;3.80;;
28170;SDS011;15458;53.346;-1.688;2023-05-29T02:30:55;16.10;;;3.85;;
28170;SDS011;15458;53.346;-1.688;2023-05-29T02:33:21;10.82;;;3.10;;
28170;SDS011;15458;53.346;-1.688;2023-05-29T02:35:47;16.88;;;3.67;;
28170;SDS011;15458;53.346;-1.688;2023-05-29T02:38:13;23.65;;;3.90;;
28170;SDS011;15458;53.346;-1.688;2023-05-29T02:40:39;19.02;;;4.00;;
28170;SDS011;15458;53.346;-1.688;2023-05-29T02:43:06;24.75;;;3.88;;
28170;SDS011;15458;53.346;-1.688;2023-05-29T02:45:33;15.93;;;3.95;;
28170;SDS011;15458;53.346;-1.688;2023-05-29T02:47:58;19.08;;;3.55;;
28170;SDS011;15458;53.346;-1.688;2023-05-29T02:50:24;23.77;;;3.75;;
28170;SDS011;15458;53.346;-1.688;2023-05-29T02:52:51;11.13;;;2.85;;
28170;SDS011;15458;53.346;-1.688;2023-05-29T02:55:17;12.20;;;3.35;;
28170;SDS011;15458;53.346;-1.688;2023-05-29T02:57:46;20.40;;;3.88;;
28170;SDS011;15458;53.346;-1.688;2023-05-29T03:02:40;17.02;;;3.70;;
28170;SDS011;15458;53.346;-1.688;2023-05-29T03:05:06;20.08;;;4.10;;
28170;SDS011;15458;53.346;-1.688;2023-05-29T03:07:32;17.73;;;4.82;;
28170;SDS011;15458;53.346;-1.688;2023-05-29T03:09:58;19.70;;;3.13;;
28170;SDS011;15458;53.346;-1.688;2023-05-29T03:12:25;20.02;;;3.10;;
28170;SDS011;15458;53.346;-1.688;2023-05-29T03:14:52;17.27;;;3.22;;
28170;SDS011;15458;53.346;-1.688;2023-05-29T03:17:19;11.38;;;3.38;;
28170;SDS011;15458;53.346;-1.688;2023-05-29T03:19:45;13.73;;;3.75;;
28170;SDS011;15458;53.346;-1.688;2023-05-29T03:22:11;14.70;;;3.45;;
28170;SDS011;15458;53.346;-1.688;2023-05-29T03:24:37;13.63;;;3.30;;
28170;SDS011;15458;53.346;-1.688;2023-05-29T03:27:02;18.35;;;3.65;;
28170;SDS011;15458;53.346;-1.688;2023-05-29T03:29:33;20.75;;;4.13;;
28170;SDS011;15458;53.346;-1.688;2023-05-29T03:31:58;17.42;;;3.40;;
28170;SDS011;15458;53.346;-1.688;2023-05-29T03:34:25;24.85;;;5.07;;
28170;SDS011;15458;53.346;-1.688;2023-05-29T03:36:51;12.13;;;3.30;;
28170;SDS011;15458;53.346;-1.688;2023-05-29T03:39:17;20.40;;;3.88;;
28170;SDS011;15458;53.346;-1.688;2023-05-29T03:41:43;19.83;;;4.28;;
28170;SDS011;15458;53.346;-1.688;2023-05-29T03:44:09;19.10;;;3.92;;
28170;SDS011;15458;53.346;-1.688;2023-05-29T03:46:34;17.58;;;3.75;;
28170;SDS011;15458;53.346;-1.688;2023-05-29T03:49:01;12.60;;;3.92;;
28170;SDS011;15458;53.346;-1.688;2023-05-29T03:51:28;16.50;;;3.90;;
28170;SDS011;15458;53.346;-1.688;2023-05-29T03:53:54;15.90;;;3.78;;
28170;SDS011;15458;53.346;-1.688;2023-05-29T03:56:20;20.02;;;5.50;;
28170;SDS011;15458;53.346;-1.688;2023-05-29T03:58:47;20.85;;;6.57;;
28170;SDS011;15458;53.346;-1.688;2023-05-29T04:01:12;27.48;;;8.35;;
28170;SDS011;15458;53.346;-1.688;2023-05-29T04:03:38;23.77;;;7.85;;
28170;SDS011;15458;53.346;-1.688;2023-05-29T04:06:04;29.40;;;9.60;;
28170;SDS011;15458;53.346;-1.688;2023-05-29T04:08:30;32.75;;;10.82;;
28170;SDS011;15458;53.346;-1.688;2023-05-29T04:10:56;30.95;;;11.13;;
28170;SDS011;15458;53.346;-1.688;2023-05-29T04:13:21;24.17;;;11.20;;
28170;SDS011;15458;53.346;-1.688;2023-05-29T04:15:47;30.50;;;13.23;;
28170;SDS011;15458;53.346;-1.688;2023-05-29T04:18:13;32.05;;;11.13;;
28170;SDS011;15458;53.346;-1.688;2023-05-29T04:20:38;35.28;;;11.75;;
28170;SDS011;15458;53.346;-1.688;2023-05-29T04:23:05;30.02;;;13.10;;
28170;SDS011;15458;53.346;-1.688;2023-05-29T04:25:30;32.30;;;12.38;;
28170;SDS011;15458;53.346;-1.688;2023-05-29T04:27:57;36.17;;;12.95;;
28170;SDS011;15458;53.346;-1.688;2023-05-29T04:30:22;33.28;;;12.60;;
28170;SDS011;15458;53.346;-1.688;2023-05-29T04:32:48;28.20;;;10.02;;
28170;SDS011;15458;53.346;-1.688;2023-05-29T04:35:14;36.08;;;12.98;;
28170;SDS011;15458;53.346;-1.688;2023-05-29T04:37:40;35.80;;;10.55;;
28170;SDS011;15458;53.346;-1.688;2023-05-29T04:40:06;32.38;;;11.48;;
28170;SDS011;15458;53.346;-1.688;2023-05-29T04:42:34;23.77;;;11.13;;
28170;SDS011;15458;53.346;-1.688;2023-05-29T04:45:01;33.47;;;10.02;;
28170;SDS011;15458;53.346;-1.688;2023-05-29T04:47:27;32.78;;;10.15;;
28170;SDS011;15458;53.346;-1.688;2023-05-29T04:49:53;27.58;;;9.98;;
28170;SDS011;15458;53.346;-1.688;2023-05-29T04:52:19;24.48;;;9.07;;
28170;SDS011;15458;53.346;-1.688;2023-05-29T04:54:46;22.95;;;9.38;;
28170;SDS011;15458;53.346;-1.688;2023-05-29T04:57:12;27.58;;;8.68;;
28170;SDS011;15458;53.346;-1.688;2023-05-29T04:59:37;22.90;;;8.52;;
28170;SDS011;15458;53.346;-1.688;2023-05-29T05:02:03;20.60;;;8.07;;
28170;SDS011;15458;53.346;-1.688;2023-05-29T05:04:29;21.73;;;8.07;;
28170;SDS011;15458;53.346;-1.688;2023-05-29T05:06:55;20.08;;;7.85;;
28170;SDS011;15458;53.346;-1.688;2023-05-29T05:09:20;18.17;;;6.85;;
28170;SDS011;15458;53.346;-1.688;2023-05-29T05:11:46;22.80;;;7.35;;
28170;SDS011;15458;53.346;-1.688;2023-05-29T05:14:12;22.50;;;6.53;;
28170;SDS011;15458;53.346;-1.688;2023-05-29T05:16:37;20.73;;;6.72;;
28170;SDS011;15458;53.346;-1.688;2023-05-29T05:19:03;21.38;;;7.30;;
28170;SDS011;15458;53.346;-1.688;2023-05-29T05:21:30;26.45;;;7.32;;
28170;SDS011;15458;53.346;-1.688;2023-05-29T05:23:56;18.85;;;6.68;;
28170;SDS011;15458;53.346;-1.688;2023-05-29T05:26:22;19.27;;;6.78;;
28170;SDS011;15458;53.346;-1.688;2023-05-29T05:28:47;17.98;;;6.47;;
28170;SDS011;15458;53.346;-1.688;2023-05-29T05:31:13;27.50;;;7.22;;
28170;SDS011;15458;53.346;-1.688;2023-05-29T05:33:39;24.00;;;6.30;;
28170;SDS011;15458;53.346;-1.688;2023-05-29T05:36:05;19.17;;;6.53;;
28170;SDS011;15458;53.346;-1.688;2023-05-29T05:38:31;22.30;;;6.93;;
28170;SDS011;15458;53.346;-1.688;2023-05-29T05:40:57;24.45;;;8.25;;
28170;SDS011;15458;53.346;-1.688;2023-05-29T05:43:23;21.80;;;6.90;;
28170;SDS011;15458;53.346;-1.688;2023-05-29T05:45:52;26.15;;;6.82;;
28170;SDS011;15458;53.346;-1.688;2023-05-29T05:48:17;18.98;;;6.60;;
28170;SDS011;15458;53.346;-1.688;2023-05-29T05:50:43;17.83;;;5.68;;
28170;SDS011;15458;53.346;-1.688;2023-05-29T05:53:09;23.75;;;6.72;;
28170;SDS011;15458;53.346;-1.688;2023-05-29T05:55:34;18.33;;;5.75;;
28170;SDS011;15458;53.346;-1.688;2023-05-29T05:58:00;16.60;;;5.75;;
28170;SDS011;15458;53.346;-1.688;2023-05-29T06:00:26;15.93;;;6.10;;
28170;SDS011;15458;53.346;-1.688;2023-05-29T06:02:51;18.50;;;5.75;;
28170;SDS011;15458;53.346;-1.688;2023-05-29T06:05:17;12.32;;;4.97;;
28170;SDS011;15458;53.346;-1.688;2023-05-29T06:07:44;23.23;;;6.40;;
28170;SDS011;15458;53.346;-1.688;2023-05-29T06:10:10;12.98;;;4.43;;
28170;SDS011;15458;53.346;-1.688;2023-05-29T06:12:36;13.57;;;4.28;;
28170;SDS011;15458;53.346;-1.688;2023-05-29T06:15:01;18.02;;;4.60;;
28170;SDS011;15458;53.346;-1.688;2023-05-29T06:17:29;12.70;;;3.58;;
28170;SDS011;15458;53.346;-1.688;2023-05-29T06:19:54;12.65;;;3.60;;
28170;SDS011;15458;53.346;-1.688;2023-05-29T06:22:20;16.33;;;4.75;;
28170;SDS011;15458;53.346;-1.688;2023-05-29T06:24:46;12.10;;;2.90;;
28170;SDS011;15458;53.346;-1.688;2023-05-29T06:27:12;7.35;;;2.97;;
28170;SDS011;15458;53.346;-1.688;2023-05-29T06:29:37;9.45;;;2.15;;
28170;SDS011;15458;53.346;-1.688;2023-05-29T06:32:03;14.88;;;3.05;;
28170;SDS011;15458;53.346;-1.688;2023-05-29T06:34:29;11.00;;;2.72;;
28170;SDS011;15458;53.346;-1.688;2023-05-29T06:36:55;10.25;;;2.53;;
28170;SDS011;15458;53.346;-1.688;2023-05-29T06:39:20;13.40;;;3.85;;
28170;SDS011;15458;53.346;-1.688;2023-05-29T06:41:49;13.27;;;2.92;;
28170;SDS011;15458;53.346;-1.688;2023-05-29T06:44:14;12.00;;;2.42;;
28170;SDS011;15458;53.346;-1.688;2023-05-29T06:46:40;15.23;;;2.85;;
28170;SDS011;15458;53.346;-1.688;2023-05-29T06:49:06;8.13;;;2.17;;
28170;SDS011;15458;53.346;-1.688;2023-05-29T06:51:33;11.77;;;2.35;;
28170;SDS011;15458;53.346;-1.688;2023-05-29T06:53:58;11.73;;;2.42;;
28170;SDS011;15458;53.346;-1.688;2023-05-29T06:56:25;16.77;;;2.65;;
28170;SDS011;15458;53.346;-1.688;2023-05-29T06:58:52;15.07;;;2.50;;
28170;SDS011;15458;53.346;-1.688;2023-05-29T07:01:18;16.50;;;3.50;;
28170;SDS011;15458;53.346;-1.688;2023-05-29T07:03:43;9.23;;;2.45;;
28170;SDS011;15458;53.346;-1.688;2023-05-29T07:06:09;11.23;;;2.60;;
28170;SDS011;15458;53.346;-1.688;2023-05-29T07:08:36;9.73;;;2.33;;
28170;SDS011;15458;53.346;-1.688;2023-05-29T07:11:02;10.40;;;2.20;;
28170;SDS011;15458;53.346;-1.688;2023-05-29T07:13:27;10.93;;;2.03;;
28170;SDS011;15458;53.346;-1.688;2023-05-29T07:15:54;12.23;;;2.08;;
28170;SDS011;15458;53.346;-1.688;2023-05-29T07:18:20;7.82;;;2.28;;
28170;SDS011;15458;53.346;-1.688;2023-05-29T07:20:46;10.40;;;2.60;;
28170;SDS011;15458;53.346;-1.688;2023-05-29T07:23:13;14.43;;;3.00;;
28170;SDS011;15458;53.346;-1.688;2023-05-29T07:25:38;12.75;;;2.17;;
28170;SDS011;15458;53.346;-1.688;2023-05-29T07:28:04;13.38;;;3.22;;
28170;SDS011;15458;53.346;-1.688;2023-05-29T07:30:30;10.80;;;2.90;;
28170;SDS011;15458;53.346;-1.688;2023-05-29T07:32:55;7.45;;;2.10;;
28170;SDS011;15458;53.346;-1.688;2023-05-29T07:35:21;12.15;;;2.30;;
28170;SDS011;15458;53.346;-1.688;2023-05-29T07:37:47;8.00;;;2.13;;
28170;SDS011;15458;53.346;-1.688;2023-05-29T07:40:14;11.75;;;2.40;;
28170;SDS011;15458;53.346;-1.688;2023-05-29T07:42:40;10.15;;;1.63;;
28170;SDS011;15458;53.346;-1.688;2023-05-29T07:45:07;14.73;;;2.40;;
28170;SDS011;15458;53.346;-1.688;2023-05-29T07:47:33;12.20;;;2.20;;
28170;SDS011;15458;53.346;-1.688;2023-05-29T07:49:59;12.45;;;2.30;;
28170;SDS011;15458;53.346;-1.688;2023-05-29T07:52:24;8.95;;;2.58;;
28170;SDS011;15458;53.346;-1.688;2023-05-29T07:54:50;16.77;;;2.17;;
28170;SDS011;15458;53.346;-1.688;2023-05-29T07:57:17;10.73;;;2.33;;
28170;SDS011;15458;53.346;-1.688;2023-05-29T07:59:43;11.30;;;1.92;;
28170;SDS011;15458;53.346;-1.688;2023-05-29T08:02:09;10.85;;;1.70;;
28170;SDS011;15458;53.346;-1.688;2023-05-29T08:04:35;12.77;;;2.50;;
28170;SDS011;15458;53.346;-1.688;2023-05-29T08:07:01;7.70;;;2.08;;
28170;SDS011;15458;53.346;-1.688;2023-05-29T08:09:30;6.57;;;1.80;;
28170;SDS011;15458;53.346;-1.688;2023-05-29T08:11:59;8.40;;;1.90;;
28170;SDS011;15458;53.346;-1.688;2023-05-29T08:14:26;11.95;;;2.10;;
28170;SDS011;15458;53.346;-1.688;2023-05-29T08:16:51;12.98;;;2.40;;
28170;SDS011;15458;53.346;-1.688;2023-05-29T08:19:17;7.80;;;2.33;;
28170;SDS011;15458;53.346;-1.688;2023-05-29T08:21:43;16.92;;;2.72;;
28170;SDS011;15458;53.346;-1.688;2023-05-29T08:24:08;9.00;;;2.38;;
28170;SDS011;15458;53.346;-1.688;2023-05-29T08:26:34;11.15;;;2.33;;
28170;SDS011;15458;53.346;-1.688;2023-05-29T08:29:00;11.00;;;1.80;;
28170;SDS011;15458;53.346;-1.688;2023-05-29T08:31:26;16.13;;;2.35;;
28170;SDS011;15458;53.346;-1.688;2023-05-29T08:33:53;10.13;;;2.20;;
28170;SDS011;15458;53.346;-1.688;2023-05-29T08:36:19;10.35;;;2.72;;
28170;SDS011;15458;53.346;-1.688;2023-05-29T08:38:48;10.90;;;2.15;;
28170;SDS011;15458;53.346;-1.688;2023-05-29T08:41:20;12.57;;;2.28;;
28170;SDS011;15458;53.346;-1.688;2023-05-29T08:43:48;10.20;;;2.10;;
28170;SDS011;15458;53.346;-1.688;2023-05-29T08:46:15;11.07;;;2.20;;
28170;SDS011;15458;53.346;-1.688;2023-05-29T08:48:46;8.95;;;2.50;;
28170;SDS011;15458;53.346;-1.688;2023-05-29T08:51:16;14.88;;;1.77;;
28170;SDS011;15458;53.346;-1.688;2023-05-29T08:53:46;12.05;;;2.20;;
28170;SDS011;15458;53.346;-1.688;2023-05-29T08:56:12;8.90;;;2.33;;
28170;SDS011;15458;53.346;-1.688;2023-05-29T08:58:38;10.15;;;2.28;;
28170;SDS011;15458;53.346;-1.688;2023-05-29T09:01:04;17.73;;;2.53;;
28170;SDS011;15458;53.346;-1.688;2023-05-29T09:03:30;9.13;;;2.10;;
28170;SDS011;15458;53.346;-1.688;2023-05-29T09:06:00;10.23;;;2.10;;
28170;SDS011;15458;53.346;-1.688;2023-05-29T09:08:28;8.02;;;2.17;;
28170;SDS011;15458;53.346;-1.688;2023-05-29T09:10:55;9.82;;;2.00;;
28170;SDS011;15458;53.346;-1.688;2023-05-29T09:13:22;8.68;;;2.00;;
28170;SDS011;15458;53.346;-1.688;2023-05-29T09:15:48;11.95;;;2.13;;
28170;SDS011;15458;53.346;-1.688;2023-05-29T09:18:16;10.75;;;2.20;;
28170;SDS011;15458;53.346;-1.688;2023-05-29T09:20:42;7.07;;;2.22;;
28170;SDS011;15458;53.346;-1.688;2023-05-29T09:23:12;11.02;;;2.28;;
28170;SDS011;15458;53.346;-1.688;2023-05-29T09:25:41;6.05;;;2.58;;
28170;SDS011;15458;53.346;-1.688;2023-05-29T09:28:08;9.43;;;2.30;;
28170;SDS011;15458;53.346;-1.688;2023-05-29T09:30:35;12.63;;;2.58;;
28170;SDS011;15458;53.346;-1.688;2023-05-29T09:33:14;8.15;;;2.47;;
28170;SDS011;15458;53.346;-1.688;2023-05-29T09:35:42;10.65;;;1.90;;
28170;SDS011;15458;53.346;-1.688;2023-05-29T09:38:10;9.07;;;2.33;;
28170;SDS011;15458;53.346;-1.688;2023-05-29T09:40:38;10.93;;;2.33;;
28170;SDS011;15458;53.346;-1.688;2023-05-29T09:43:11;10.38;;;2.15;;
28170;SDS011;15458;53.346;-1.688;2023-05-29T09:45:39;13.85;;;2.42;;
28170;SDS011;15458;53.346;-1.688;2023-05-29T09:48:07;6.85;;;2.35;;
28170;SDS011;15458;53.346;-1.688;2023-05-29T09:50:38;7.55;;;2.33;;
28170;SDS011;15458;53.346;-1.688;2023-05-29T09:53:15;9.93;;;2.95;;
28170;SDS011;15458;53.346;-1.688;2023-05-29T09:55:41;9.80;;;2.30;;
28170;SDS011;15458;53.346;-1.688;2023-05-29T09:58:08;7.65;;;1.58;;
28170;SDS011;15458;53.346;-1.688;2023-05-29T10:00:37;9.90;;;2.42;;
28170;SDS011;15458;53.346;-1.688;2023-05-29T10:03:04;9.40;;;2.20;;
28170;SDS011;15458;53.346;-1.688;2023-05-29T10:05:30;13.68;;;2.45;;
28170;SDS011;15458;53.346;-1.688;2023-05-29T10:07:56;10.15;;;2.30;;
28170;SDS011;15458;53.346;-1.688;2023-05-29T10:10:24;10.93;;;2.53;;
28170;SDS011;15458;53.346;-1.688;2023-05-29T10:12:52;12.75;;;2.30;;
28170;SDS011;15458;53.346;-1.688;2023-05-29T10:15:20;8.20;;;2.25;;
28170;SDS011;15458;53.346;-1.688;2023-05-29T10:17:49;7.32;;;2.20;;
28170;SDS011;15458;53.346;-1.688;2023-05-29T10:20:22;8.82;;;2.33;;
28170;SDS011;15458;53.346;-1.688;2023-05-29T10:22:51;14.25;;;2.58;;
28170;SDS011;15458;53.346;-1.688;2023-05-29T10:25:21;10.18;;;2.38;;
28170;SDS011;15458;53.346;-1.688;2023-05-29T10:27:47;11.50;;;2.35;;
28170;SDS011;15458;53.346;-1.688;2023-05-29T10:30:16;6.95;;;2.03;;
28170;SDS011;15458;53.346;-1.688;2023-05-29T10:35:52;6.30;;;1.90;;
28170;SDS011;15458;53.346;-1.688;2023-05-29T10:38:24;5.57;;;2.20;;
28170;SDS011;15458;53.346;-1.688;2023-05-29T10:40:51;10.18;;;2.65;;
28170;SDS011;15458;53.346;-1.688;2023-05-29T10:43:30;7.93;;;2.00;;
28170;SDS011;15458;53.346;-1.688;2023-05-29T10:45:57;7.47;;;2.22;;
28170;SDS011;15458;53.346;-1.688;2023-05-29T10:50:53;7.05;;;2.00;;
28170;SDS011;15458;53.346;-1.688;2023-05-29T10:53:24;9.73;;;2.25;;
28170;SDS011;15458;53.346;-1.688;2023-05-29T10:55:52;12.80;;;2.17;;
28170;SDS011;15458;53.346;-1.688;2023-05-29T10:58:19;9.32;;;1.75;;
28170;SDS011;15458;53.346;-1.688;2023-05-29T11:00:49;6.38;;;1.75;;
28170;SDS011;15458;53.346;-1.688;2023-05-29T11:03:19;6.32;;;2.00;;
28170;SDS011;15458;53.346;-1.688;2023-05-29T11:06:03;7.82;;;2.00;;
28170;SDS011;15458;53.346;-1.688;2023-05-29T11:08:46;8.43;;;2.65;;
28170;SDS011;15458;53.346;-1.688;2023-05-29T11:11:30;9.48;;;2.10;;
28170;SDS011;15458;53.346;-1.688;2023-05-29T11:14:01;6.05;;;1.75;;
28170;SDS011;15458;53.346;-1.688;2023-05-29T11:19:03;11.65;;;2.40;;
28170;SDS011;15458;53.346;-1.688;2023-05-29T11:24:39;5.72;;;1.75;;
28170;SDS011;15458;53.346;-1.688;2023-05-29T11:27:05;6.65;;;2.28;;
28170;SDS011;15458;53.346;-1.688;2023-05-29T11:29:33;6.95;;;2.15;;
28170;SDS011;15458;53.346;-1.688;2023-05-29T11:34:31;7.03;;;2.13;;
28170;SDS011;15458;53.346;-1.688;2023-05-29T11:37:01;6.35;;;2.13;;
28170;SDS011;15458;53.346;-1.688;2023-05-29T11:39:28;7.22;;;2.40;;
28170;SDS011;15458;53.346;-1.688;2023-05-29T11:42:00;6.78;;;2.28;;
28170;SDS011;15458;53.346;-1.688;2023-05-29T11:44:27;6.72;;;1.98;;
28170;SDS011;15458;53.346;-1.688;2023-05-29T11:47:00;8.13;;;2.08;;
28170;SDS011;15458;53.346;-1.688;2023-05-29T11:49:30;6.18;;;2.08;;
28170;SDS011;15458;53.346;-1.688;2023-05-29T11:54:42;9.30;;;2.22;;
28170;SDS011;15458;53.346;-1.688;2023-05-29T11:57:21;7.03;;;2.25;;
28170;SDS011;15458;53.346;-1.688;2023-05-29T11:59:50;7.40;;;1.75;;
28170;SDS011;15458;53.346;-1.688;2023-05-29T12:02:23;8.55;;;2.00;;
28170;SDS011;15458;53.346;-1.688;2023-05-29T12:05:00;10.98;;;2.70;;
28170;SDS011;15458;53.346;-1.688;2023-05-29T12:07:26;9.07;;;2.20;;
28170;SDS011;15458;53.346;-1.688;2023-05-29T12:09:52;6.93;;;2.03;;
28170;SDS011;15458;53.346;-1.688;2023-05-29T12:12:23;7.85;;;1.92;;
28170;SDS011;15458;53.346;-1.688;2023-05-29T12:14:52;6.93;;;2.13;;
28170;SDS011;15458;53.346;-1.688;2023-05-29T12:17:18;6.45;;;2.00;;
28170;SDS011;15458;53.346;-1.688;2023-05-29T12:19:45;8.93;;;2.30;;
28170;SDS011;15458;53.346;-1.688;2023-05-29T12:22:13;6.97;;;2.40;;
28170;SDS011;15458;53.346;-1.688;2023-05-29T12:24:39;9.48;;;2.38;;
28170;SDS011;15458;53.346;-1.688;2023-05-29T12:30:47;10.50;;;3.05;;
28170;SDS011;15458;53.346;-1.688;2023-05-29T12:33:30;8.43;;;2.67;;
28170;SDS011;15458;53.346;-1.688;2023-05-29T12:36:08;9.95;;;2.72;;
28170;SDS011;15458;53.346;-1.688;2023-05-29T12:38:51;11.88;;;2.28;;
28170;SDS011;15458;53.346;-1.688;2023-05-29T12:41:30;8.60;;;2.08;;
28170;SDS011;15458;53.346;-1.688;2023-05-29T12:44:01;9.18;;;2.08;;
28170;SDS011;15458;53.346;-1.688;2023-05-29T12:46:34;7.50;;;1.95;;
28170;SDS011;15458;53.346;-1.688;2023-05-29T12:49:12;7.65;;;2.00;;
28170;SDS011;15458;53.346;-1.688;2023-05-29T12:51:45;9.15;;;1.83;;
28170;SDS011;15458;53.346;-1.688;2023-05-29T12:54:14;7.70;;;2.33;;
28170;SDS011;15458;53.346;-1.688;2023-05-29T12:56:45;8.15;;;2.40;;
28170;SDS011;15458;53.346;-1.688;2023-05-29T12:59:12;7.95;;;2.92;;
28170;SDS011;15458;53.346;-1.688;2023-05-29T13:01:40;7.75;;;2.10;;
28170;SDS011;15458;53.346;-1.688;2023-05-29T13:04:09;7.22;;;2.10;;
28170;SDS011;15458;53.346;-1.688;2023-05-29T13:06:37;10.35;;;2.42;;
28170;SDS011;15458;53.346;-1.688;2023-05-29T13:09:05;7.57;;;2.53;;
28170;SDS011;15458;53.346;-1.688;2023-05-29T13:11:33;9.55;;;2.08;;
28170;SDS011;15458;53.346;-1.688;2023-05-29T13:14:10;6.68;;;2.25;;
28170;SDS011;15458;53.346;-1.688;2023-05-29T13:16:35;6.55;;;1.88;;
28170;SDS011;15458;53.346;-1.688;2023-05-29T13:19:04;7.88;;;2.10;;
28170;SDS011;15458;53.346;-1.688;2023-05-29T13:21:37;8.85;;;2.25;;
28170;SDS011;15458;53.346;-1.688;2023-05-29T13:24:06;6.93;;;2.30;;
28170;SDS011;15458;53.346;-1.688;2023-05-29T13:29:10;7.75;;;2.22;;
28170;SDS011;15458;53.346;-1.688;2023-05-29T13:31:40;5.40;;;1.95;;
28170;SDS011;15458;53.346;-1.688;2023-05-29T13:34:12;10.05;;;2.55;;
28170;SDS011;15458;53.346;-1.688;2023-05-29T13:36:37;8.88;;;1.90;;
28170;SDS011;15458;53.346;-1.688;2023-05-29T13:39:03;6.05;;;2.10;;
28170;SDS011;15458;53.346;-1.688;2023-05-29T13:41:29;6.93;;;1.73;;
28170;SDS011;15458;53.346;-1.688;2023-05-29T13:43:56;10.57;;;2.28;;
28170;SDS011;15458;53.346;-1.688;2023-05-29T13:46:22;5.53;;;1.73;;
28170;SDS011;15458;53.346;-1.688;2023-05-29T13:48:51;6.25;;;2.35;;
28170;SDS011;15458;53.346;-1.688;2023-05-29T13:51:19;6.25;;;1.92;;
28170;SDS011;15458;53.346;-1.688;2023-05-29T13:53:45;7.65;;;2.20;;
28170;SDS011;15458;53.346;-1.688;2023-05-29T13:56:11;6.35;;;1.90;;
28170;SDS011;15458;53.346;-1.688;2023-05-29T13:58:47;5.60;;;2.10;;
28170;SDS011;15458;53.346;-1.688;2023-05-29T14:01:20;5.20;;;2.40;;
28170;SDS011;15458;53.346;-1.688;2023-05-29T14:03:50;6.10;;;2.17;;
28170;SDS011;15458;53.346;-1.688;2023-05-29T14:06:16;7.60;;;2.17;;
28170;SDS011;15458;53.346;-1.688;2023-05-29T14:08:41;7.70;;;2.00;;
28170;SDS011;15458;53.346;-1.688;2023-05-29T14:11:07;6.55;;;2.22;;
28170;SDS011;15458;53.346;-1.688;2023-05-29T14:13:34;6.78;;;1.90;;
28170;SDS011;15458;53.346;-1.688;2023-05-29T14:16:00;11.05;;;2.80;;
28170;SDS011;15458;53.346;-1.688;2023-05-29T14:18:26;6.50;;;2.22;;
28170;SDS011;15458;53.346;-1.688;2023-05-29T14:20:54;6.30;;;1.92;;
28170;SDS011;15458;53.346;-1.688;2023-05-29T14:23:20;7.72;;;2.05;;
28170;SDS011;15458;53.346;-1.688;2023-05-29T14:25:46;6.50;;;1.88;;
28170;SDS011;15458;53.346;-1.688;2023-05-29T14:28:12;6.30;;;2.00;;
28170;SDS011;15458;53.346;-1.688;2023-05-29T14:30:38;7.47;;;2.38;;
28170;SDS011;15458;53.346;-1.688;2023-05-29T14:33:04;6.07;;;1.80;;
28170;SDS011;15458;53.346;-1.688;2023-05-29T14:35:34;5.63;;;2.08;;
28170;SDS011;15458;53.346;-1.688;2023-05-29T14:40:27;6.35;;;1.90;;
28170;SDS011;15458;53.346;-1.688;2023-05-29T14:42:53;7.35;;;2.28;;
28170;SDS011;15458;53.346;-1.688;2023-05-29T14:45:20;9.02;;;2.38;;
28170;SDS011;15458;53.346;-1.688;2023-05-29T14:47:45;5.57;;;1.80;;
28170;SDS011;15458;53.346;-1.688;2023-05-29T14:50:11;7.60;;;2.05;;
28170;SDS011;15458;53.346;-1.688;2023-05-29T14:52:37;6.88;;;1.73;;
28170;SDS011;15458;53.346;-1.688;2023-05-29T14:55:05;6.00;;;2.05;;
28170;SDS011;15458;53.346;-1.688;2023-05-29T14:57:35;10.13;;;1.73;;